createdAt,value
2019-04-27T00:02:08.315Z,46.50
2019-04-27T00:05:35.009Z,50.50
2019-04-27T00:08:49.153Z,53.45
2019-04-27T00:12:05.729Z,54.75
2019-04-27T00:15:03.343Z,54.95
2019-04-27T00:18:09.388Z,54.93
2019-04-27T00:21:13.470Z,59.23
2019-04-27T00:24:08.366Z,58.95
2019-04-27T00:27:03.364Z,52.05
2019-04-27T00:29:59.065Z,50.90
2019-04-27T00:32:54.715Z,52.23
2019-04-27T00:36:03.804Z,54.85
2019-04-27T00:39:19.626Z,63.17
2019-04-27T00:42:15.370Z,51.45
2019-04-27T00:45:13.517Z,66.55
2019-04-27T00:48:08.021Z,63.80
2019-04-27T00:51:04.619Z,67.75
2019-04-27T00:54:00.495Z,60.80
2019-04-27T00:57:15.684Z,63.87
2019-04-27T01:00:28.867Z,68.02
2019-04-27T01:03:37.096Z,63.23
2019-04-27T01:06:33.908Z,72.67
2019-04-27T01:09:31.820Z,60.00
2019-04-27T01:12:29.421Z,77.00
2019-04-27T01:15:28.295Z,71.62
2019-04-27T01:18:25.342Z,69.67
2019-04-27T01:21:23.176Z,84.22
2019-04-27T01:24:21.064Z,70.20
2019-04-27T01:27:50.959Z,55.52
2019-04-27T01:31:09.257Z,65.52
2019-04-27T01:34:06.618Z,57.88
2019-04-27T01:37:03.145Z,63.78
2019-04-27T01:39:59.843Z,68.33
2019-04-27T01:42:58.805Z,56.23
2019-04-27T01:45:54.300Z,68.10
2019-04-27T01:48:50.047Z,65.72
2019-04-27T01:51:45.967Z,75.25
2019-04-27T01:54:43.074Z,72.10
2019-04-27T01:57:40.280Z,76.72
2019-04-27T02:01:03.414Z,64.75
2019-04-27T02:04:09.140Z,59.42
2019-04-27T02:07:09.075Z,74.75
2019-04-27T02:10:06.513Z,76.40
2019-04-27T02:13:04.941Z,77.75
2019-04-27T02:16:01.365Z,74.97
2019-04-27T02:18:58.609Z,70.95
2019-04-27T02:21:55.218Z,71.28
2019-04-27T02:24:51.469Z,74.42
2019-04-27T02:27:49.275Z,65.45
2019-04-27T02:31:01.914Z,79.27
2019-04-27T02:34:16.500Z,65.87
2019-04-27T02:37:13.318Z,64.72
2019-04-27T02:40:20.401Z,66.33
2019-04-27T02:43:15.516Z,68.45
2019-04-27T02:46:12.497Z,80.47
2019-04-27T02:49:10.160Z,70.83
2019-04-27T02:52:09.250Z,70.12
2019-04-27T02:55:04.015Z,68.52
2019-04-27T02:57:59.857Z,52.40
2019-04-27T03:00:55.586Z,55.65
2019-04-27T03:03:51.373Z,65.87
2019-04-27T03:06:49.945Z,48.48
2019-04-27T03:09:44.658Z,47.62
2019-04-27T03:12:45.812Z,56.77
2019-04-27T03:19:14.984Z,48.65
2019-04-27T03:22:24.975Z,40.98
2019-04-27T03:25:36.171Z,48.52
2019-04-27T03:28:36.300Z,55.50
2019-04-27T03:31:34.887Z,41.98
2019-04-27T03:34:32.221Z,47.00
2019-04-27T03:37:30.777Z,45.15
2019-04-27T03:40:31.010Z,55.23
2019-04-27T03:43:31.061Z,40.45
2019-04-27T03:46:30.128Z,44.88
2019-04-27T03:49:34.357Z,54.15
2019-04-27T03:52:32.175Z,45.15
2019-04-27T03:55:31.418Z,45.33
2019-04-27T03:58:51.731Z,59.18
2019-04-27T04:01:50.515Z,51.33
2019-04-27T04:04:45.171Z,46.28
2019-04-27T04:07:42.310Z,56.80
2019-04-27T04:10:41.738Z,57.70
2019-04-27T04:13:41.337Z,58.98
2019-04-27T04:16:49.660Z,64.20
2019-04-27T04:19:54.401Z,60.17
2019-04-27T04:22:42.452Z,70.95
2019-04-27T04:25:41.015Z,48.95
2019-04-27T04:28:36.413Z,55.43
2019-04-27T04:31:34.416Z,51.00
2019-04-27T04:34:30.228Z,45.52
2019-04-27T04:37:26.354Z,56.73
2019-04-27T04:40:25.778Z,54.20
2019-04-27T04:47:00.496Z,61.48
2019-04-27T04:50:10.197Z,67.50
2019-04-27T04:52:52.837Z,73.45
2019-04-27T04:55:48.898Z,76.15
2019-04-27T04:58:43.276Z,80.40
2019-04-27T05:01:39.746Z,86.35
2019-04-27T05:04:33.841Z,78.97
2019-04-27T05:07:29.690Z,86.87
2019-04-27T05:10:24.444Z,72.80
2019-04-27T05:13:20.013Z,69.20
2019-04-27T05:16:15.876Z,81.87
2019-04-27T05:19:12.116Z,84.03
2019-04-27T05:22:27.360Z,79.25
2019-04-27T05:25:24.035Z,75.45
2019-04-27T05:28:21.723Z,85.72
2019-04-27T05:31:20.127Z,62.50
2019-04-27T05:34:19.701Z,74.25
2019-04-27T05:37:27.535Z,56.02
2019-04-27T05:40:20.761Z,60.38
2019-04-27T05:43:19.360Z,58.17
2019-04-27T05:46:49.329Z,61.65
2019-04-27T05:49:50.683Z,54.63
2019-04-27T05:52:49.645Z,60.58
2019-04-27T05:55:46.962Z,54.40
2019-04-27T05:58:45.422Z,56.88
2019-04-27T06:01:43.196Z,56.90
2019-04-27T06:04:41.786Z,59.03
2019-04-27T06:07:40.021Z,50.28
2019-04-27T06:10:38.649Z,56.25
2019-04-27T06:13:40.617Z,72.20
2019-04-27T06:16:40.416Z,55.75
2019-04-27T06:19:39.086Z,52.13
2019-04-27T06:22:34.576Z,55.60
2019-04-27T06:25:32.674Z,50.17
2019-04-27T06:28:31.524Z,40.23
2019-04-27T06:31:26.057Z,46.85
2019-04-27T06:34:21.246Z,54.27
2019-04-27T06:37:16.869Z,54.10
2019-04-27T06:40:13.824Z,46.20
2019-04-27T06:43:09.486Z,48.87
2019-04-27T06:46:08.823Z,44.27
2019-04-27T06:49:05.759Z,54.08
2019-04-27T06:52:05.187Z,49.05
2019-04-27T06:55:06.304Z,50.78
2019-04-27T06:58:20.045Z,49.67
2019-04-27T07:01:21.574Z,46.48
2019-04-27T07:05:13.197Z,55.52
2019-04-27T07:09:10.596Z,55.35
2019-04-27T07:12:15.252Z,56.83
2019-04-27T07:18:06.445Z,45.65
2019-04-27T11:58:57.912Z,50.90
2019-04-27T12:01:55.926Z,45.67
2019-04-27T12:05:00.868Z,52.05
2019-04-27T12:08:02.054Z,51.88
2019-04-27T12:11:02.501Z,49.58
2019-04-27T12:13:59.005Z,65.00
2019-04-27T12:17:01.125Z,61.25
2019-04-27T12:20:03.155Z,49.50
2019-04-27T12:23:01.004Z,49.58
2019-04-27T12:26:05.767Z,51.15
2019-04-27T12:28:56.083Z,57.40
2019-04-27T12:31:51.024Z,57.62
2019-04-27T12:35:10.327Z,64.95
2019-04-27T12:38:06.730Z,65.52
2019-04-27T12:41:02.360Z,68.62
2019-04-27T12:43:58.204Z,63.78
2019-04-27T12:47:02.730Z,64.58
2019-04-27T12:50:06.220Z,78.97
2019-04-27T12:53:02.557Z,86.00
2019-04-27T12:56:10.128Z,76.55
2019-04-27T12:59:27.128Z,108.50
2019-04-27T13:02:27.454Z,88.85
2019-04-27T13:05:22.791Z,77.30
2019-04-27T13:08:20.528Z,66.90
2019-04-27T13:11:18.084Z,62.40
2019-04-27T13:14:16.346Z,79.62
2019-04-27T13:17:12.556Z,76.77
2019-04-27T13:20:08.866Z,76.33
2019-04-27T13:23:07.193Z,72.80
2019-04-27T13:26:03.047Z,81.87
2019-04-27T13:28:59.821Z,104.27
2019-04-27T13:31:55.736Z,106.78
2019-04-27T13:34:52.040Z,81.85
2019-04-27T13:37:47.739Z,98.12
2019-04-27T13:41:10.564Z,76.53
2019-04-27T13:44:06.589Z,78.17
2019-04-27T13:47:27.272Z,83.17
2019-04-27T13:50:25.732Z,71.70
2019-04-27T13:53:21.326Z,72.20
2019-04-27T13:56:19.866Z,88.60
2019-04-27T13:59:15.153Z,92.95
2019-04-27T14:02:10.242Z,108.83
2019-04-27T14:05:07.299Z,101.33
2019-04-27T14:08:02.552Z,86.57
2019-04-27T14:11:01.255Z,87.02
2019-04-27T14:13:58.649Z,88.20
2019-04-27T14:16:57.130Z,109.90
2019-04-27T14:19:59.400Z,75.97
2019-04-27T14:22:54.313Z,105.43
2019-04-27T14:25:52.871Z,98.20
2019-04-27T14:28:49.869Z,97.30
2019-04-27T14:31:49.719Z,126.22
2019-04-27T14:34:45.154Z,104.67
2019-04-27T14:37:41.147Z,96.82
2019-04-27T14:40:39.093Z,93.37
2019-04-27T14:43:33.405Z,98.75
2019-04-27T14:46:30.461Z,81.12
2019-04-27T14:49:31.695Z,99.85
2019-04-27T14:52:27.646Z,82.00
2019-04-27T14:55:22.524Z,80.15
2019-04-27T14:58:19.109Z,96.50
2019-04-27T15:01:14.640Z,87.85
2019-04-27T15:04:11.008Z,103.53
2019-04-27T15:07:07.578Z,88.22
2019-04-27T15:10:02.823Z,82.57
2019-04-27T15:13:01.563Z,93.05
2019-04-27T15:15:57.522Z,98.90
2019-04-27T15:19:03.179Z,79.37
2019-04-27T15:22:01.459Z,105.45
2019-04-27T15:25:09.045Z,102.60
2019-04-27T15:27:58.503Z,101.95
2019-04-27T15:31:26.173Z,89.35
2019-04-27T15:34:27.525Z,81.42
2019-04-27T15:37:28.095Z,83.52
2019-04-27T15:40:29.638Z,90.95
2019-04-27T15:43:30.949Z,64.95
2019-04-27T15:46:27.814Z,89.55
2019-04-27T15:49:26.047Z,81.17
2019-04-27T15:52:25.628Z,108.97
2019-04-27T15:55:31.530Z,110.42
2019-04-27T15:58:19.381Z,117.50
2019-04-27T16:01:14.039Z,81.87
2019-04-27T16:04:12.654Z,114.72
2019-04-27T16:07:09.778Z,89.45
2019-04-27T16:10:06.277Z,125.42
2019-04-27T16:13:06.822Z,147.25
2019-04-27T16:15:59.792Z,88.85
2019-04-27T16:19:10.239Z,108.75
2019-04-27T16:22:05.531Z,112.47
2019-04-27T16:25:03.950Z,81.53
2019-04-27T16:28:04.631Z,138.62
2019-04-27T16:48:39.740Z,124.38
2019-04-27T16:51:36.855Z,109.48
2019-04-27T16:54:31.179Z,133.90
2019-04-27T16:57:27.738Z,115.67
2019-04-27T17:00:26.527Z,123.58
2019-04-27T17:03:20.028Z,182.97
2019-04-27T17:06:15.142Z,160.63
2019-04-27T17:11:50.000Z,139.82
2019-04-27T17:14:58.115Z,160.37
2019-04-27T17:18:15.267Z,115.92
2019-04-27T17:21:18.530Z,159.95
2019-04-27T17:24:08.993Z,144.85
2019-04-27T17:27:05.088Z,139.20
2019-04-27T17:30:01.940Z,96.90
2019-04-27T17:33:18.478Z,124.07
2019-04-27T17:36:16.375Z,125.15
2019-04-27T17:39:11.516Z,118.67
2019-04-27T17:42:08.266Z,213.12
2019-04-27T17:45:03.486Z,128.45
2019-04-27T17:48:06.510Z,136.75
2019-04-27T17:50:55.932Z,110.70
2019-04-27T17:53:50.328Z,128.25
2019-04-27T17:56:50.999Z,118.70
2019-04-27T17:59:45.415Z,134.50
2019-04-27T18:02:43.126Z,139.12
2019-04-27T18:05:43.763Z,121.50
2019-04-27T18:08:40.072Z,215.12
2019-04-27T18:11:37.267Z,163.77
2019-04-27T18:14:37.068Z,166.10
2019-04-27T18:17:29.733Z,168.17
2019-04-27T18:20:28.810Z,173.38
2019-04-27T18:23:24.893Z,214.00
2019-04-27T18:26:30.823Z,163.10
2019-04-27T18:29:30.642Z,203.22
2019-04-27T18:32:27.661Z,171.55
2019-04-27T18:35:26.203Z,177.57
2019-04-27T18:38:17.833Z,198.97
2019-04-27T18:41:12.939Z,195.18
2019-04-27T18:44:08.715Z,194.93
2019-04-27T18:47:04.510Z,198.45
2019-04-27T18:50:24.298Z,176.50
2019-04-27T18:53:28.824Z,180.95
2019-04-27T18:56:28.845Z,201.65
2019-04-27T18:59:26.665Z,202.43
2019-04-27T19:02:23.825Z,188.15
2019-04-27T19:05:19.861Z,176.82
2019-04-27T19:08:14.813Z,201.30
2019-04-27T19:11:10.112Z,199.80
2019-04-27T19:14:05.956Z,198.97
2019-04-27T19:17:01.571Z,188.25
2019-04-27T19:19:57.187Z,154.65
2019-04-27T19:22:52.633Z,167.07
2019-04-27T19:25:55.192Z,153.95
2019-04-27T19:29:08.656Z,149.60
2019-04-27T19:32:05.530Z,148.38
2019-04-27T19:35:01.814Z,154.60
2019-04-27T19:37:58.987Z,164.93
2019-04-27T19:40:54.754Z,140.88
2019-04-27T19:43:50.715Z,137.65
2019-04-27T19:46:46.113Z,137.90
2019-04-27T19:49:41.030Z,147.15
2019-04-27T19:52:38.915Z,173.15
2019-04-27T19:55:35.307Z,170.50
2019-04-27T19:58:31.435Z,172.80
2019-04-27T20:01:36.431Z,156.70
2019-04-27T20:04:36.855Z,145.95
2019-04-27T20:07:32.422Z,143.28
2019-04-27T20:10:28.424Z,128.65
2019-04-27T20:13:24.777Z,133.82
2019-04-27T20:16:22.017Z,137.25
2019-04-27T20:19:18.367Z,133.45
2019-04-27T20:22:13.454Z,117.13
2019-04-27T20:25:11.087Z,129.80
2019-04-27T20:28:05.730Z,129.57
2019-04-27T20:31:02.828Z,109.27
2019-04-27T20:33:59.020Z,112.42
2019-04-27T20:36:54.809Z,111.12
2019-04-27T20:39:51.443Z,106.65
2019-04-27T20:42:47.277Z,114.22
2019-04-27T20:45:42.550Z,110.03
2019-04-27T20:48:38.065Z,112.35
2019-04-27T20:51:56.252Z,91.47
2019-04-27T20:54:51.933Z,98.97
2019-04-27T20:57:58.669Z,94.92
2019-04-27T21:00:44.313Z,97.80
2019-04-27T21:03:44.106Z,82.17
2019-04-27T21:06:48.616Z,89.72
2019-04-27T21:09:43.387Z,108.75
2019-04-27T21:12:38.665Z,100.22
2019-04-27T21:15:34.941Z,90.25
2019-04-27T21:18:31.708Z,77.45
2019-04-27T21:21:26.048Z,80.35
2019-04-27T21:24:22.836Z,81.20
2019-04-27T21:27:21.601Z,76.33
2019-04-27T21:30:16.401Z,85.92
2019-04-27T21:33:12.025Z,67.15
2019-04-27T21:36:07.051Z,66.70
2019-04-27T21:39:01.955Z,76.10
2019-04-27T21:41:57.388Z,68.87
2019-04-27T21:44:53.035Z,67.32
2019-04-27T21:47:47.356Z,80.35
2019-04-27T21:50:44.867Z,86.00
2019-04-27T21:54:04.570Z,75.42
2019-04-27T21:57:00.458Z,68.60
2019-04-27T21:59:54.882Z,101.10
2019-04-27T22:02:51.832Z,73.92
2019-04-27T22:05:48.364Z,84.22
2019-04-27T22:08:44.677Z,64.10
2019-04-27T22:11:41.369Z,71.97
2019-04-27T22:14:37.452Z,81.22
2019-04-27T22:17:32.962Z,83.78
2019-04-27T22:20:32.319Z,74.53
2019-04-27T22:23:38.746Z,64.58
2019-04-27T22:26:36.312Z,81.05
2019-04-27T22:29:32.381Z,72.53
2019-04-27T22:32:28.585Z,90.65
2019-04-27T22:35:23.751Z,80.92
2019-04-27T22:38:18.713Z,84.92
2019-04-27T22:41:31.378Z,73.28
2019-04-27T22:44:48.562Z,73.05
2019-04-27T22:47:46.138Z,72.85
2019-04-27T22:50:43.112Z,88.52
2019-04-27T22:53:41.025Z,116.50
2019-04-27T22:56:36.812Z,126.40
2019-04-27T22:59:50.819Z,101.60
2019-04-27T23:02:53.425Z,119.77
2019-04-27T23:05:52.337Z,120.92
2019-04-27T23:08:51.544Z,133.03
2019-04-27T23:11:48.677Z,156.20
2019-04-27T23:14:46.434Z,174.57
2019-04-27T23:18:01.065Z,171.70
2019-04-27T23:20:58.135Z,142.37
2019-04-27T23:23:53.969Z,121.00
2019-04-27T23:27:04.246Z,126.53
2019-04-27T23:30:02.049Z,121.82
2019-04-27T23:33:00.843Z,125.75
2019-04-27T23:35:55.933Z,123.65
2019-04-27T23:38:52.684Z,116.45
2019-04-27T23:41:48.185Z,111.88
2019-04-27T23:44:43.487Z,128.47
2019-04-27T23:47:50.524Z,109.83
2019-04-27T23:50:46.631Z,126.42
2019-04-27T23:53:46.382Z,117.20
2019-04-27T23:56:42.086Z,104.60
2019-04-27T23:59:38.058Z,103.07
